Time;durP1;ratioP1;P1;durP2;ratioP2;P2;SDS_P1;SDS_P2;PMS_P1;PMS_P2;Temp;Humidity;BMP_temperature;BMP_pressure;BME280_temperature;BME280_humidity;BME280_pressure;Samples;Min_cycle;Max_cycle;Signal;HPM_P1;HPM_P2
2024/01/17 00:01:41;;;;;;;;;;;18.00;56.00;;;;;;7316851;19;9377;-66
2024/01/17 00:04:10;;;;;;;;;;;18.00;55.80;;;;;;7317219;19;9287;-66
2024/01/17 00:06:39;;;;;;;;;;;18.20;55.80;;;;;;7317429;19;9264;-66
2024/01/17 00:09:09;;;;;;;;;;;18.20;55.60;;;;;;7316713;19;9124;-66
2024/01/17 00:11:40;;;;;;;;;;;18.30;55.50;;;;;;7317015;19;9684;-66
2024/01/17 00:14:09;;;;;;;;;;;18.30;55.40;;;;;;7319748;19;9396;-66
2024/01/17 00:16:39;;;;;;;;;;;18.40;55.40;;;;;;7316210;19;9205;-66
2024/01/17 00:19:08;;;;;;;;;;;18.40;55.30;;;;;;7316454;19;10807;-66
2024/01/17 00:21:37;;;;;;;;;;;18.50;55.30;;;;;;7314685;19;9520;-66
2024/01/17 00:24:06;;;;;;;;;;;18.50;55.30;;;;;;7317435;19;9461;-66
2024/01/17 00:26:35;;;;;;;;;;;18.50;55.20;;;;;;7317072;19;9436;-66
2024/01/17 00:29:07;;;;;;;;;;;18.50;54.70;;;;;;7319049;19;9614;-66
2024/01/17 00:31:36;;;;;;;;;;;18.50;54.80;;;;;;7312688;19;9168;-66
2024/01/17 00:34:05;;;;;;;;;;;18.50;54.50;;;;;;7317662;19;9610;-66
2024/01/17 00:36:34;;;;;;;;;;;18.50;54.40;;;;;;7315406;19;9494;-67
2024/01/17 00:39:04;;;;;;;;;;;18.50;54.40;;;;;;7316810;19;9109;-66
2024/01/17 00:41:34;;;;;;;;;;;18.40;54.40;;;;;;7315546;19;9529;-66
2024/01/17 00:44:04;;;;;;;;;;;18.40;54.30;;;;;;7316374;19;9125;-66
2024/01/17 00:46:36;;;;;;;;;;;18.40;54.40;;;;;;7318977;19;8944;-66
2024/01/17 00:49:05;;;;;;;;;;;18.30;54.40;;;;;;7322213;19;11861;-66
2024/01/17 00:51:35;;;;;;;;;;;18.30;54.30;;;;;;7320968;19;9198;-66
2024/01/17 00:54:04;;;;;;;;;;;18.20;54.40;;;;;;7321873;19;9560;-66
2024/01/17 00:56:35;;;;;;;;;;;18.10;54.30;;;;;;7321900;19;11231;-66
2024/01/17 00:59:05;;;;;;;;;;;18.10;54.60;;;;;;7323300;19;9185;-66
2024/01/17 01:01:38;;;;;;;;;;;18.10;54.50;;;;;;7321029;19;9255;-66
2024/01/17 01:04:07;;;;;;;;;;;18.00;54.50;;;;;;7324305;19;9170;-66
2024/01/17 01:06:36;;;;;;;;;;;18.00;54.70;;;;;;7321244;19;9235;-66
2024/01/17 01:09:05;;;;;;;;;;;17.90;54.60;;;;;;7316919;19;9242;-66
2024/01/17 01:11:35;;;;;;;;;;;17.90;54.90;;;;;;7320727;19;9154;-65
2024/01/17 01:14:05;;;;;;;;;;;17.80;55.00;;;;;;7320076;19;9266;-66
2024/01/17 01:16:34;;;;;;;;;;;17.80;54.90;;;;;;7321670;19;9634;-65
2024/01/17 01:19:25;;;;;;;;;;;17.70;54.80;;;;;;7321384;19;9268;-66
2024/01/17 01:21:54;;;;;;;;;;;17.70;55.00;;;;;;7322131;19;9276;-66
2024/01/17 01:24:24;;;;;;;;;;;17.70;55.00;;;;;;7321022;19;9343;-67
2024/01/17 01:26:53;;;;;;;;;;;17.60;54.80;;;;;;7322114;19;11820;-66
2024/01/17 01:29:42;;;;;;;;;;;17.60;54.90;;;;;;7318004;19;9245;-66
2024/01/17 01:32:11;;;;;;;;;;;17.60;55.00;;;;;;7321782;19;9611;-66
2024/01/17 01:34:43;;;;;;;;;;;17.60;55.00;;;;;;7319721;19;9541;-66
2024/01/17 01:37:12;;;;;;;;;;;17.60;54.80;;;;;;7321965;19;9186;-66
2024/01/17 01:39:42;;;;;;;;;;;17.70;54.80;;;;;;7320463;19;9237;-66
2024/01/17 01:42:11;;;;;;;;;;;17.70;54.60;;;;;;7320074;19;9285;-66
2024/01/17 01:44:40;;;;;;;;;;;17.70;54.60;;;;;;7319527;19;10883;-66
2024/01/17 01:47:09;;;;;;;;;;;17.80;54.50;;;;;;7319271;19;9301;-66
2024/01/17 01:49:39;;;;;;;;;;;17.70;54.40;;;;;;7320586;19;9641;-66
2024/01/17 01:52:12;;;;;;;;;;;17.80;54.30;;;;;;7318129;19;9244;-66
2024/01/17 01:54:41;;;;;;;;;;;17.80;54.30;;;;;;7322093;19;9347;-67
2024/01/17 01:57:12;;;;;;;;;;;17.80;54.50;;;;;;7318101;19;9179;-67
2024/01/17 01:59:41;;;;;;;;;;;17.90;54.60;;;;;;7319636;19;9295;-66
2024/01/17 02:02:11;;;;;;;;;;;17.90;54.60;;;;;;7319731;19;10700;-66
2024/01/17 02:04:40;;;;;;;;;;;18.00;54.80;;;;;;7319455;19;9278;-66
2024/01/17 02:07:15;;;;;;;;;;;18.10;54.80;;;;;;7317796;19;9234;-66
2024/01/17 02:09:44;;;;;;;;;;;18.10;54.70;;;;;;7317939;19;9461;-66
2024/01/17 02:12:13;;;;;;;;;;;18.10;54.40;;;;;;7319607;19;9191;-66
2024/01/17 02:14:44;;;;;;;;;;;18.20;54.40;;;;;;7318790;19;9387;-66
2024/01/17 02:17:13;;;;;;;;;;;18.30;54.40;;;;;;7320353;19;9416;-66
2024/01/17 02:19:44;;;;;;;;;;;18.30;54.30;;;;;;7317983;19;9291;-66
2024/01/17 02:22:36;;;;;;;;;;;18.40;54.20;;;;;;7316909;19;9281;-66
2024/01/17 02:25:09;;;;;;;;;;;18.50;54.30;;;;;;7318479;19;10245;-66
2024/01/17 02:27:38;;;;;;;;;;;18.50;54.10;;;;;;7319529;19;9338;-65
2024/01/17 02:30:09;;;;;;;;;;;18.50;54.00;;;;;;7319762;19;9682;-66
2024/01/17 02:32:39;;;;;;;;;;;18.50;54.10;;;;;;7319760;19;9466;-66
2024/01/17 02:35:08;;;;;;;;;;;18.50;54.00;;;;;;7317922;19;9444;-66
2024/01/17 02:37:37;;;;;;;;;;;18.50;53.90;;;;;;7316210;19;10482;-66
2024/01/17 02:40:10;;;;;;;;;;;18.50;53.50;;;;;;7320156;19;9415;-66
2024/01/17 02:42:39;;;;;;;;;;;18.40;53.30;;;;;;7315850;19;9203;-66
2024/01/17 02:45:10;;;;;;;;;;;18.50;53.40;;;;;;7319607;19;10636;-66
2024/01/17 02:47:39;;;;;;;;;;;18.40;53.20;;;;;;7319974;19;9281;-66
2024/01/17 02:50:11;;;;;;;;;;;18.30;53.10;;;;;;7318921;19;9167;-66
2024/01/17 02:52:40;;;;;;;;;;;18.30;53.00;;;;;;7317954;19;11876;-66
2024/01/17 02:55:13;;;;;;;;;;;18.20;53.00;;;;;;7318306;19;9489;-66
2024/01/17 02:57:42;;;;;;;;;;;18.20;53.00;;;;;;7319646;19;9541;-66
2024/01/17 03:00:12;;;;;;;;;;;18.20;53.10;;;;;;7318060;19;9113;-66
2024/01/17 03:02:41;;;;;;;;;;;18.10;53.10;;;;;;7320067;19;9470;-66
2024/01/17 03:05:11;;;;;;;;;;;18.10;53.10;;;;;;7316573;19;9612;-66
2024/01/17 03:07:40;;;;;;;;;;;18.00;53.30;;;;;;7318321;19;9280;-66
2024/01/17 03:10:13;;;;;;;;;;;18.00;53.20;;;;;;7316344;19;9502;-66
2024/01/17 03:12:42;;;;;;;;;;;17.90;53.20;;;;;;7320004;19;9408;-66
2024/01/17 03:15:12;;;;;;;;;;;17.90;53.30;;;;;;7318997;19;9260;-66
2024/01/17 03:17:42;;;;;;;;;;;17.80;53.40;;;;;;7318830;19;10116;-66
2024/01/17 03:20:13;;;;;;;;;;;17.80;53.40;;;;;;7318543;19;9533;-66
2024/01/17 03:22:42;;;;;;;;;;;17.70;53.50;;;;;;7319658;19;9294;-66
2024/01/17 03:25:14;;;;;;;;;;;17.70;53.60;;;;;;7318721;19;9345;-66
2024/01/17 03:27:43;;;;;;;;;;;17.70;53.50;;;;;;7317659;19;11381;-66
2024/01/17 03:30:14;;;;;;;;;;;17.70;53.40;;;;;;7318999;19;9376;-66
2024/01/17 03:32:43;;;;;;;;;;;17.80;53.50;;;;;;7319707;19;9331;-66
2024/01/17 03:35:12;;;;;;;;;;;17.70;53.40;;;;;;7314079;19;9505;-66
2024/01/17 03:37:41;;;;;;;;;;;17.80;53.40;;;;;;7316308;19;9120;-66
2024/01/17 03:40:15;;;;;;;;;;;17.70;53.30;;;;;;7318889;19;9077;-66
2024/01/17 03:42:43;;;;;;;;;;;17.80;53.30;;;;;;7313114;19;9198;-66
2024/01/17 03:45:12;;;;;;;;;;;17.80;53.20;;;;;;7319432;19;9218;-66
2024/01/17 03:47:41;;;;;;;;;;;17.80;53.20;;;;;;7317790;19;9233;-66
2024/01/17 03:50:11;;;;;;;;;;;17.80;53.20;;;;;;7317008;19;9238;-66
2024/01/17 03:52:40;;;;;;;;;;;17.90;53.50;;;;;;7318240;19;9238;-66
2024/01/17 03:55:09;;;;;;;;;;;17.90;53.70;;;;;;7311262;19;9315;-66
2024/01/17 03:57:41;;;;;;;;;;;17.90;53.60;;;;;;7317484;19;9515;-66
2024/01/17 04:00:11;;;;;;;;;;;18.00;53.50;;;;;;7317285;19;9490;-66
2024/01/17 04:02:40;;;;;;;;;;;18.00;53.70;;;;;;7319000;19;9212;-66
2024/01/17 04:05:10;;;;;;;;;;;18.10;53.40;;;;;;7315871;19;9276;-67
2024/01/17 04:07:39;;;;;;;;;;;18.20;53.40;;;;;;7317963;19;10716;-66
2024/01/17 04:10:09;;;;;;;;;;;18.20;53.40;;;;;;7316068;19;9655;-66
2024/01/17 04:12:37;;;;;;;;;;;18.30;53.50;;;;;;7316568;19;9501;-66
2024/01/17 04:15:10;;;;;;;;;;;18.30;53.30;;;;;;7315445;19;9273;-66
2024/01/17 04:17:39;;;;;;;;;;;18.30;53.20;;;;;;7316249;19;9244;-66
2024/01/17 04:20:09;;;;;;;;;;;18.40;53.20;;;;;;7315217;19;10400;-66
2024/01/17 04:22:38;;;;;;;;;;;18.40;53.20;;;;;;7316040;19;9371;-65
2024/01/17 04:25:08;;;;;;;;;;;18.50;53.40;;;;;;7316587;19;10323;-66
2024/01/17 04:27:37;;;;;;;;;;;18.50;53.30;;;;;;7317756;19;9183;-66
2024/01/17 04:30:14;;;;;;;;;;;18.50;53.90;;;;;;7318865;19;9457;-66
2024/01/17 04:32:43;;;;;;;;;;;18.40;53.10;;;;;;7314488;19;9630;-66
2024/01/17 04:35:13;;;;;;;;;;;18.50;53.20;;;;;;7317025;19;9243;-66
2024/01/17 04:37:42;;;;;;;;;;;18.50;53.10;;;;;;7316816;19;9321;-66
2024/01/17 04:40:13;;;;;;;;;;;18.40;52.60;;;;;;7314282;19;9304;-66
2024/01/17 04:42:43;;;;;;;;;;;18.50;52.80;;;;;;7317464;19;9350;-66
2024/01/17 04:45:35;;;;;;;;;;;18.40;52.50;;;;;;7313445;19;9556;-66
2024/01/17 04:48:04;;;;;;;;;;;18.40;52.30;;;;;;7317375;19;9245;-66
2024/01/17 04:50:34;;;;;;;;;;;18.30;52.20;;;;;;7314260;19;10018;-66
2024/01/17 04:53:03;;;;;;;;;;;18.30;52.20;;;;;;7317360;19;9267;-66
2024/01/17 04:55:33;;;;;;;;;;;18.20;52.20;;;;;;7315921;19;9525;-66
2024/01/17 04:58:02;;;;;;;;;;;18.20;52.30;;;;;;7316864;19;9478;-66
2024/01/17 05:00:31;;;;;;;;;;;18.10;52.30;;;;;;7315292;19;9350;-66
2024/01/17 05:03:02;;;;;;;;;;;18.10;52.40;;;;;;7315954;19;9199;-66
2024/01/17 05:05:31;;;;;;;;;;;18.00;52.50;;;;;;7318171;19;9542;-66
2024/01/17 05:08:00;;;;;;;;;;;18.00;52.50;;;;;;7317801;19;9305;-66
2024/01/17 05:10:29;;;;;;;;;;;17.90;52.50;;;;;;7315496;19;9517;-66
2024/01/17 05:12:59;;;;;;;;;;;17.90;52.60;;;;;;7318060;19;9308;-66
2024/01/17 05:15:28;;;;;;;;;;;17.80;52.50;;;;;;7315217;19;9437;-66
2024/01/17 05:17:57;;;;;;;;;;;17.80;52.80;;;;;;7313283;19;9531;-66
2024/01/17 05:20:29;;;;;;;;;;;17.80;52.70;;;;;;7313227;19;9327;-66
2024/01/17 05:22:58;;;;;;;;;;;17.80;52.80;;;;;;7314444;19;9179;-66
2024/01/17 05:25:46;;;;;;;;;;;17.80;52.70;;;;;;7311759;19;9345;-66
2024/01/17 05:28:15;;;;;;;;;;;17.80;52.70;;;;;;7316125;19;9134;-66
2024/01/17 05:30:45;;;;;;;;;;;17.80;52.70;;;;;;7312050;19;9463;-66
2024/01/17 05:33:14;;;;;;;;;;;17.80;52.70;;;;;;7318708;19;9131;-66
2024/01/17 05:35:45;;;;;;;;;;;17.80;52.60;;;;;;7317489;19;9473;-66
2024/01/17 05:38:14;;;;;;;;;;;17.80;52.80;;;;;;7320277;19;9258;-66
2024/01/17 05:40:44;;;;;;;;;;;17.70;52.60;;;;;;7319807;19;9466;-65
2024/01/17 05:43:12;;;;;;;;;;;17.80;52.60;;;;;;7321401;19;9238;-66
2024/01/17 05:45:41;;;;;;;;;;;17.80;52.60;;;;;;7319675;19;9288;-66
2024/01/17 05:48:10;;;;;;;;;;;17.80;53.00;;;;;;7319935;19;9571;-66
2024/01/17 05:50:39;;;;;;;;;;;17.90;53.00;;;;;;7319590;19;9210;-66
2024/01/17 05:53:11;;;;;;;;;;;17.90;53.10;;;;;;7320944;19;9537;-66
2024/01/17 05:55:39;;;;;;;;;;;18.00;52.80;;;;;;7321059;19;9541;-66
2024/01/17 05:58:09;;;;;;;;;;;18.00;52.90;;;;;;7318976;19;9139;-66
2024/01/17 06:00:38;;;;;;;;;;;18.10;53.10;;;;;;7320056;19;10736;-66
2024/01/17 06:03:07;;;;;;;;;;;18.10;52.90;;;;;;7319357;19;9218;-66
2024/01/17 06:05:36;;;;;;;;;;;18.20;52.90;;;;;;7318560;19;10316;-66
2024/01/17 06:08:06;;;;;;;;;;;18.20;52.90;;;;;;7317911;19;9549;-66
2024/01/17 06:10:37;;;;;;;;;;;18.20;52.90;;;;;;7317771;19;9303;-66
2024/01/17 06:13:08;;;;;;;;;;;18.30;52.70;;;;;;7319418;19;10311;-66
2024/01/17 06:15:36;;;;;;;;;;;18.30;52.70;;;;;;7319457;19;9757;-65
2024/01/17 06:18:25;;;;;;;;;;;18.40;52.70;;;;;;7318816;19;9653;-65
2024/01/17 06:20:55;;;;;;;;;;;18.40;52.50;;;;;;7319199;19;9559;-65
2024/01/17 06:23:24;;;;;;;;;;;18.40;52.60;;;;;;7321098;19;9140;-66
2024/01/17 06:25:55;;;;;;;;;;;18.50;52.70;;;;;;7320393;19;9372;-65
2024/01/17 06:28:44;;;;;;;;;;;18.50;52.60;;;;;;7313539;19;9227;-65
2024/01/17 06:31:13;;;;;;;;;;;18.40;52.50;;;;;;7320149;19;9203;-66
2024/01/17 06:33:43;;;;;;;;;;;18.40;52.50;;;;;;7318041;19;9842;-66
2024/01/17 06:36:12;;;;;;;;;;;18.40;52.40;;;;;;7321042;19;9293;-66
2024/01/17 06:38:40;;;;;;;;;;;18.40;51.90;;;;;;7319467;19;9286;-66
2024/01/17 06:41:13;;;;;;;;;;;18.40;52.10;;;;;;7319852;19;9658;-66
2024/01/17 06:43:42;;;;;;;;;;;18.40;52.00;;;;;;7316536;19;9186;-66
2024/01/17 06:46:11;;;;;;;;;;;18.40;51.80;;;;;;7318450;19;9921;-66
2024/01/17 06:48:40;;;;;;;;;;;18.30;51.70;;;;;;7319725;19;10276;-66
2024/01/17 06:51:09;;;;;;;;;;;18.30;51.80;;;;;;7318638;19;9314;-66
2024/01/17 06:53:37;;;;;;;;;;;18.20;51.70;;;;;;7317617;19;10708;-67
2024/01/17 06:56:07;;;;;;;;;;;18.20;51.70;;;;;;7319218;19;9614;-66
2024/01/17 06:58:39;;;;;;;;;;;18.20;51.90;;;;;;7319085;19;9182;-66
2024/01/17 07:01:09;;;;;;;;;;;18.10;51.90;;;;;;7313614;19;9121;-66
2024/01/17 07:03:38;;;;;;;;;;;18.00;52.00;;;;;;7318831;19;9352;-66
2024/01/17 07:06:08;;;;;;;;;;;18.00;52.10;;;;;;7317352;19;10645;-66
2024/01/17 07:08:36;;;;;;;;;;;18.00;52.20;;;;;;7316911;19;10403;-66
2024/01/17 07:11:25;;;;;;;;;;;17.90;52.20;;;;;;7314056;19;9552;-65
2024/01/17 07:13:57;;;;;;;;;;;17.90;52.40;;;;;;7315559;19;9681;-66
2024/01/17 07:16:26;;;;;;;;;;;17.80;52.50;;;;;;7320022;19;9569;-66
2024/01/17 07:18:55;;;;;;;;;;;17.80;52.60;;;;;;7318008;19;9322;-72
2024/01/17 07:21:24;;;;;;;;;;;17.80;52.80;;;;;;7317717;19;9129;-65
2024/01/17 07:23:54;;;;;;;;;;;17.80;53.10;;;;;;7315735;19;9282;-66
2024/01/17 07:26:23;;;;;;;;;;;17.80;53.20;;;;;;7314961;19;9132;-66
2024/01/17 07:28:51;;;;;;;;;;;17.70;53.00;;;;;;7315638;19;9789;-66
2024/01/17 07:31:23;;;;;;;;;;;17.70;52.80;;;;;;7317522;19;9274;-65
2024/01/17 07:33:52;;;;;;;;;;;17.70;52.80;;;;;;7314164;19;10710;-66
2024/01/17 07:36:21;;;;;;;;;;;17.70;52.80;;;;;;7314834;19;10275;-66
2024/01/17 07:38:51;;;;;;;;;;;17.80;52.80;;;;;;7318410;19;9214;-66
2024/01/17 07:41:21;;;;;;;;;;;17.80;52.80;;;;;;7317912;19;9136;-66
2024/01/17 07:43:50;;;;;;;;;;;17.70;52.70;;;;;;7316562;19;9183;-66
2024/01/17 07:46:19;;;;;;;;;;;17.80;53.10;;;;;;7319158;19;9338;-66
2024/01/17 07:48:50;;;;;;;;;;;17.80;53.00;;;;;;7318231;19;9230;-66
2024/01/17 07:51:19;;;;;;;;;;;17.90;53.10;;;;;;7316619;19;10251;-66
2024/01/17 07:53:48;;;;;;;;;;;17.90;53.20;;;;;;7316398;19;9274;-66
2024/01/17 07:56:17;;;;;;;;;;;17.90;53.00;;;;;;7317974;19;9301;-66
2024/01/17 07:58:46;;;;;;;;;;;18.00;52.90;;;;;;7315817;19;9479;-66
2024/01/17 08:01:15;;;;;;;;;;;18.10;53.10;;;;;;7317673;19;9342;-66
2024/01/17 08:03:44;;;;;;;;;;;18.20;52.90;;;;;;7318011;19;9586;-66
2024/01/17 08:06:16;;;;;;;;;;;18.20;52.70;;;;;;7316288;19;9650;-66
2024/01/17 08:08:45;;;;;;;;;;;18.30;52.70;;;;;;7318806;19;9223;-66
2024/01/17 08:11:14;;;;;;;;;;;18.40;52.60;;;;;;7315176;19;9270;-66
2024/01/17 08:13:43;;;;;;;;;;;18.50;52.50;;;;;;7317217;19;9399;-66
2024/01/17 08:16:13;;;;;;;;;;;18.60;52.40;;;;;;7314910;19;9329;-66
2024/01/17 08:18:42;;;;;;;;;;;18.60;52.40;;;;;;7315613;19;9234;-66
2024/01/17 08:21:12;;;;;;;;;;;18.60;52.30;;;;;;7313771;19;9506;-67
2024/01/17 08:23:43;;;;;;;;;;;18.60;52.20;;;;;;7315815;19;9462;-65
2024/01/17 08:26:32;;;;;;;;;;;18.60;52.40;;;;;;7311823;19;10128;-65
2024/01/17 08:29:02;;;;;;;;;;;18.60;52.40;;;;;;7312649;19;9272;-66
2024/01/17 08:31:31;;;;;;;;;;;18.60;52.40;;;;;;7311625;19;9398;-65
2024/01/17 08:34:00;;;;;;;;;;;18.60;52.20;;;;;;7315380;19;9273;-65
2024/01/17 08:36:31;;;;;;;;;;;18.60;52.20;;;;;;7314790;19;9289;-66
2024/01/17 08:39:05;;;;;;;;;;;18.50;52.30;;;;;;7315966;19;9712;-65
2024/01/17 08:41:35;;;;;;;;;;;18.50;52.10;;;;;;7317059;19;9460;-66
2024/01/17 08:44:04;;;;;;;;;;;18.50;51.90;;;;;;7312013;19;9538;-65
2024/01/17 08:46:33;;;;;;;;;;;18.40;51.70;;;;;;7313909;19;9283;-65
2024/01/17 08:49:02;;;;;;;;;;;18.40;51.80;;;;;;7312692;19;10543;-65
2024/01/17 08:51:31;;;;;;;;;;;18.30;51.70;;;;;;7316283;19;9489;-66
2024/01/17 08:54:02;;;;;;;;;;;18.30;51.80;;;;;;7317593;19;9236;-65
2024/01/17 08:56:31;;;;;;;;;;;18.20;51.80;;;;;;7314523;19;9574;-66
2024/01/17 08:59:02;;;;;;;;;;;18.20;51.90;;;;;;7314709;19;9246;-65
2024/01/17 09:01:30;;;;;;;;;;;18.10;52.00;;;;;;7315787;19;9129;-66
2024/01/17 09:03:59;;;;;;;;;;;18.10;52.00;;;;;;7315919;19;9163;-66
2024/01/17 09:06:29;;;;;;;;;;;18.00;52.20;;;;;;7310214;19;9124;-65
2024/01/17 09:08:57;;;;;;;;;;;18.00;52.30;;;;;;7320295;19;9222;-65
2024/01/17 09:11:29;;;;;;;;;;;17.90;52.20;;;;;;7318723;19;9605;-66
2024/01/17 09:13:58;;;;;;;;;;;17.90;52.30;;;;;;7319467;19;9132;-66
2024/01/17 09:16:27;;;;;;;;;;;17.90;52.40;;;;;;7319917;19;9267;-66
2024/01/17 09:18:56;;;;;;;;;;;17.80;52.40;;;;;;7323429;19;9461;-65
2024/01/17 09:21:25;;;;;;;;;;;17.80;52.50;;;;;;7322753;19;9653;-66
2024/01/17 09:23:54;;;;;;;;;;;17.80;53.20;;;;;;7319443;19;11244;-65
2024/01/17 09:26:24;;;;;;;;;;;17.80;52.70;;;;;;7321857;19;9286;-65
2024/01/17 09:28:55;;;;;;;;;;;17.70;52.50;;;;;;7322527;19;9103;-65
2024/01/17 09:31:24;;;;;;;;;;;17.80;52.50;;;;;;7319952;19;9256;-65
2024/01/17 09:33:53;;;;;;;;;;;17.80;52.50;;;;;;7320340;19;9411;-66
2024/01/17 09:36:22;;;;;;;;;;;17.80;52.40;;;;;;7319897;19;9254;-65
2024/01/17 09:38:52;;;;;;;;;;;17.80;52.40;;;;;;7319083;19;10221;-65
2024/01/17 09:41:21;;;;;;;;;;;17.80;52.30;;;;;;7319561;19;9346;-65
2024/01/17 09:43:51;;;;;;;;;;;17.90;52.40;;;;;;7317135;19;9510;-66
2024/01/17 09:46:23;;;;;;;;;;;17.90;52.40;;;;;;7319152;19;9327;-66
2024/01/17 09:48:52;;;;;;;;;;;17.90;52.60;;;;;;7319284;19;9358;-67
2024/01/17 09:51:28;;;;;;;;;;;17.90;52.90;;;;;;7320774;19;9281;-66
2024/01/17 09:54:02;;;;;;;;;;;17.90;52.90;;;;;;7321225;19;9241;-66
2024/01/17 09:56:33;;;;;;;;;;;18.00;53.00;;;;;;7317878;19;10704;-66
2024/01/17 09:59:13;;;;;;;;;;;18.00;52.50;;;;;;7315949;19;9296;-65
2024/01/17 10:02:07;;;;;;;;;;;18.10;52.60;;;;;;7319196;19;9256;-65
2024/01/17 10:04:37;;;;;;;;;;;18.20;52.70;;;;;;7317230;19;9294;-66
2024/01/17 10:07:04;;;;;;;;;;;18.30;52.70;;;;;;7313366;19;9474;-65
2024/01/17 10:09:34;;;;;;;;;;;18.30;52.40;;;;;;7317117;19;9302;-66
2024/01/17 10:12:03;;;;;;;;;;;18.50;52.40;;;;;;7320007;19;9230;-66
2024/01/17 10:14:32;;;;;;;;;;;18.50;52.20;;;;;;7320399;19;9479;-66
2024/01/17 10:17:01;;;;;;;;;;;18.60;52.20;;;;;;7320920;19;9501;-66
2024/01/17 10:19:53;;;;;;;;;;;18.70;52.20;;;;;;7315973;19;9270;-66
2024/01/17 10:22:22;;;;;;;;;;;18.70;52.10;;;;;;7319709;19;9536;-66
2024/01/17 10:24:55;;;;;;;;;;;18.70;52.00;;;;;;7316970;19;9142;-66
2024/01/17 10:27:24;;;;;;;;;;;18.80;52.20;;;;;;7321763;19;9222;-66
2024/01/17 10:29:53;;;;;;;;;;;18.70;52.20;;;;;;7320636;19;9247;-66
2024/01/17 10:32:43;;;;;;;;;;;18.70;52.10;;;;;;7318173;19;9185;-66
2024/01/17 10:35:19;;;;;;;;;;;18.70;52.00;;;;;;7317767;19;9380;-66
2024/01/17 10:37:48;;;;;;;;;;;18.60;52.00;;;;;;7316834;19;9230;-66
2024/01/17 10:40:17;;;;;;;;;;;18.60;52.00;;;;;;7318297;19;9132;-66
2024/01/17 10:42:47;;;;;;;;;;;18.60;51.80;;;;;;7320082;19;9313;-66
2024/01/17 10:45:23;;;;;;;;;;;18.60;52.50;;;;;;7320290;19;9785;-66
2024/01/17 10:47:52;;;;;;;;;;;18.60;52.60;;;;;;7315221;19;9271;-66
2024/01/17 10:50:24;;;;;;;;;;;18.60;51.80;;;;;;7320385;19;9175;-66
2024/01/17 10:52:54;;;;;;;;;;;18.50;51.70;;;;;;7318923;19;10253;-66
2024/01/17 10:55:28;;;;;;;;;;;18.50;51.60;;;;;;7318898;19;11214;-66
2024/01/17 10:58:01;;;;;;;;;;;18.40;51.60;;;;;;7316183;19;9281;-66
2024/01/17 11:00:32;;;;;;;;;;;18.40;51.70;;;;;;7313807;19;9469;-66
2024/01/17 11:03:08;;;;;;;;;;;18.30;51.70;;;;;;7316584;19;9285;-69
2024/01/17 11:05:47;;;;;;;;;;;18.30;51.70;;;;;;7317906;19;9251;-74
2024/01/17 11:08:18;;;;;;;;;;;18.20;51.80;;;;;;7318224;19;9476;-83
2024/01/17 11:10:48;;;;;;;;;;;18.20;52.00;;;;;;7312489;19;9485;-75
2024/01/17 11:13:19;;;;;;;;;;;18.20;52.20;;;;;;7317428;19;11429;-73
2024/01/17 11:15:49;;;;;;;;;;;18.10;52.20;;;;;;7318858;19;9454;-73
2024/01/17 11:18:20;;;;;;;;;;;18.10;53.00;;;;;;7319946;19;9485;-74
2024/01/17 11:20:55;;;;;;;;;;;18.10;52.40;;;;;;7318415;19;9321;-66
2024/01/17 11:23:36;;;;;;;;;;;18.10;52.40;;;;;;7316342;19;9138;-67
2024/01/17 11:26:18;;;;;;;;;;;18.10;52.40;;;;;;7319853;19;9410;-66
2024/01/17 11:28:59;;;;;;;;;;;18.10;52.60;;;;;;7319523;19;10769;-67
2024/01/17 11:31:43;;;;;;;;;;;18.10;52.50;;;;;;7316873;19;9245;-67
2024/01/17 11:34:14;;;;;;;;;;;18.10;52.50;;;;;;7318369;19;10752;-66
2024/01/17 11:36:47;;;;;;;;;;;18.10;52.50;;;;;;7315690;19;9304;-76
2024/01/17 11:39:20;;;;;;;;;;;18.10;52.70;;;;;;7314877;19;9538;-78
2024/01/17 11:41:52;;;;;;;;;;;18.10;52.60;;;;;;7314272;19;9253;-76
2024/01/17 11:44:23;;;;;;;;;;;18.20;53.00;;;;;;7317263;19;11153;-77
2024/01/17 11:46:54;;;;;;;;;;;18.20;53.10;;;;;;7319263;19;9075;-76
2024/01/17 11:49:42;;;;;;;;;;;18.20;53.00;;;;;;7319286;19;9170;-76
2024/01/17 11:52:30;;;;;;;;;;;18.30;53.00;;;;;;7316355;19;9242;-74
2024/01/17 11:54:59;;;;;;;;;;;18.30;53.00;;;;;;7318703;19;9478;-74
2024/01/17 11:57:29;;;;;;;;;;;18.30;52.80;;;;;;7317923;19;9307;-75
2024/01/17 12:00:11;;;;;;;;;;;18.40;53.00;;;;;;7316095;19;11538;-67
2024/01/17 12:02:42;;;;;;;;;;;18.50;52.90;;;;;;7315336;19;11282;-67
2024/01/17 12:05:13;;;;;;;;;;;18.50;52.80;;;;;;7307944;19;9381;-67
2024/01/17 12:07:49;;;;;;;;;;;18.60;52.70;;;;;;7316111;19;9297;-67
2024/01/17 12:10:18;;;;;;;;;;;18.60;52.60;;;;;;7316164;19;10279;-67
2024/01/17 12:12:47;;;;;;;;;;;18.70;52.50;;;;;;7311654;19;9331;-67
2024/01/17 12:15:16;;;;;;;;;;;18.80;52.50;;;;;;7316477;19;9257;-67
2024/01/17 12:17:47;;;;;;;;;;;18.90;53.00;;;;;;7311963;19;9395;-67
2024/01/17 12:20:16;;;;;;;;;;;19.00;52.30;;;;;;7318241;19;9746;-67
2024/01/17 12:22:52;;;;;;;;;;;19.10;52.20;;;;;;7316667;19;9240;-67
2024/01/17 12:25:22;;;;;;;;;;;19.10;52.10;;;;;;7318336;19;9535;-67
2024/01/17 12:27:56;;;;;;;;;;;19.10;52.10;;;;;;7315205;19;9198;-68
2024/01/17 12:30:25;;;;;;;;;;;19.10;52.10;;;;;;7316693;19;9265;-67
2024/01/17 12:32:54;;;;;;;;;;;19.10;52.10;;;;;;7316392;19;9197;-67
2024/01/17 12:35:23;;;;;;;;;;;19.20;52.10;;;;;;7316174;19;9289;-68
2024/01/17 12:37:55;;;;;;;;;;;19.20;52.20;;;;;;7317839;19;10628;-67
2024/01/17 12:40:24;;;;;;;;;;;19.30;52.10;;;;;;7316964;19;9505;-68
2024/01/17 12:43:14;;;;;;;;;;;19.30;52.00;;;;;;7313627;19;10248;-67
2024/01/17 12:45:44;;;;;;;;;;;19.30;52.00;;;;;;7315503;19;9291;-67
2024/01/17 12:48:15;;;;;;;;;;;19.30;52.00;;;;;;7316426;19;9661;-67
2024/01/17 12:50:48;;;;;;;;;;;19.30;52.10;;;;;;7315361;19;9213;-68
2024/01/17 12:53:21;;;;;;;;;;;19.30;52.00;;;;;;7317349;19;9828;-67
2024/01/17 12:55:50;;;;;;;;;;;19.30;52.10;;;;;;7315986;19;9340;-67
2024/01/17 12:58:20;;;;;;;;;;;19.20;52.10;;;;;;7316919;19;9484;-67
2024/01/17 13:00:51;;;;;;;;;;;19.20;52.10;;;;;;7312689;19;9242;-67
2024/01/17 13:03:42;;;;;;;;;;;19.20;52.10;;;;;;7314722;19;9702;-67
2024/01/17 13:06:12;;;;;;;;;;;19.20;52.80;;;;;;7314629;19;9242;-67
2024/01/17 13:08:44;;;;;;;;;;;19.10;52.00;;;;;;7316055;19;9492;-67
2024/01/17 13:11:23;;;;;;;;;;;19.10;51.90;;;;;;7316199;19;9537;-67
2024/01/17 13:13:53;;;;;;;;;;;19.10;52.00;;;;;;7316676;19;9424;-66
2024/01/17 13:16:22;;;;;;;;;;;19.00;52.10;;;;;;7313947;19;9696;-67
2024/01/17 13:18:57;;;;;;;;;;;19.00;52.00;;;;;;7316425;19;9229;-67
2024/01/17 13:21:26;;;;;;;;;;;18.90;51.90;;;;;;7316018;19;9270;-67
2024/01/17 13:23:58;;;;;;;;;;;18.90;52.00;;;;;;7315166;19;9178;-67
2024/01/17 13:26:29;;;;;;;;;;;18.90;52.10;;;;;;7315693;19;10320;-67
2024/01/17 13:28:58;;;;;;;;;;;18.80;52.10;;;;;;7315074;19;9174;-67
2024/01/17 13:31:29;;;;;;;;;;;18.80;52.30;;;;;;7315840;19;9327;-67
2024/01/17 13:33:58;;;;;;;;;;;18.80;52.30;;;;;;7315558;19;9523;-67
2024/01/17 13:36:28;;;;;;;;;;;18.70;52.30;;;;;;7314176;19;9221;-67
2024/01/17 13:39:00;;;;;;;;;;;18.80;52.60;;;;;;7314223;19;9247;-67
2024/01/17 13:41:31;;;;;;;;;;;18.70;52.50;;;;;;7316533;19;9169;-67
2024/01/17 13:44:00;;;;;;;;;;;18.70;52.20;;;;;;7314977;19;9244;-67
2024/01/17 13:46:29;;;;;;;;;;;18.80;52.30;;;;;;7314474;19;9396;-67
2024/01/17 13:48:58;;;;;;;;;;;18.70;52.40;;;;;;7314671;19;9477;-67
2024/01/17 13:51:34;;;;;;;;;;;18.70;52.50;;;;;;7314755;19;10067;-67
2024/01/17 13:54:14;;;;;;;;;;;18.70;52.60;;;;;;7320457;19;9871;-67
2024/01/17 13:56:44;;;;;;;;;;;18.70;52.60;;;;;;7319507;19;9080;-67
2024/01/17 13:59:13;;;;;;;;;;;18.80;52.50;;;;;;7322211;19;8988;-67
2024/01/17 14:01:42;;;;;;;;;;;18.80;52.60;;;;;;7322844;19;9379;-67
2024/01/17 14:04:11;;;;;;;;;;;18.80;52.60;;;;;;7322233;19;9251;-67
2024/01/17 14:06:40;;;;;;;;;;;18.80;52.50;;;;;;7320897;19;9261;-67
2024/01/17 14:09:13;;;;;;;;;;;18.90;52.60;;;;;;7322925;19;9278;-67
2024/01/17 14:11:42;;;;;;;;;;;18.90;52.70;;;;;;7320182;19;9649;-67
2024/01/17 14:14:31;;;;;;;;;;;18.90;52.50;;;;;;7318821;19;9290;-67
2024/01/17 14:17:00;;;;;;;;;;;19.00;52.50;;;;;;7321760;19;9481;-67
2024/01/17 14:19:30;;;;;;;;;;;19.10;52.50;;;;;;7319369;19;10387;-67
2024/01/17 14:22:00;;;;;;;;;;;19.20;52.40;;;;;;7319892;19;9634;-67
2024/01/17 14:24:31;;;;;;;;;;;19.30;52.40;;;;;;7319973;19;9432;-67
2024/01/17 14:27:00;;;;;;;;;;;19.30;52.20;;;;;;7323034;19;9244;-67
2024/01/17 14:29:29;;;;;;;;;;;19.40;52.30;;;;;;7320477;19;9334;-67
2024/01/17 14:31:58;;;;;;;;;;;19.40;52.20;;;;;;7320173;19;9246;-68
2024/01/17 14:34:27;;;;;;;;;;;19.40;52.10;;;;;;7320741;19;9489;-68
2024/01/17 14:36:56;;;;;;;;;;;19.50;52.20;;;;;;7321405;19;9355;-67
2024/01/17 14:39:26;;;;;;;;;;;19.40;52.10;;;;;;7321089;19;10302;-69
2024/01/17 14:41:57;;;;;;;;;;;19.40;52.20;;;;;;7319573;19;9473;-68
2024/01/17 14:44:27;;;;;;;;;;;19.40;52.30;;;;;;7321014;19;9348;-68
2024/01/17 14:46:55;;;;;;;;;;;19.40;52.30;;;;;;7319527;19;9458;-67
2024/01/17 14:49:25;;;;;;;;;;;19.30;52.20;;;;;;7319129;19;9128;-67
2024/01/17 14:51:54;;;;;;;;;;;19.30;52.10;;;;;;7319863;19;9259;-68